الصفحة الرئيسية
METAR-TAF:

METAR-TAF

مطار :

يانغون, بورما

دائرة عرض: 16-46N, خط طول: 096-10E, ارتفاع: 14 متر

مراقبة الطقس الحالي

تاريخ ووقت الإصدار 40 دقيقة قبل الساعة 18:30UTC
ريح 3 عقدة من الشمال الغربي
درجة الحرارة 22°درجة مئوية
الرطوبة 78%
ضغط 1014 hPa
الرؤية: 6000 متر

METAR: VYYY 141830Z 32003KT 6000 NSC 22/18 Q1014 NOSIG

زمن: 01:40 (19:10 UTC)

توقعات

تاريخ ووقت الإصدار 14ساعات و 10 دقيقة قبل الساعة 05:00UTC
التوقعات صالحة من14 الساعة 06 UTC إلى 15 الساعة 06 UTC
ريح 6 عقدة من الشمال/الشمال الغربي
الرؤية: 8000 متر
غيوم قليلة على ارتفاع 2000 قدم
مؤقت
من 14 الساعة 12 UTC إلى 14 الساعة 18 UTC
الرؤية: 6000 متر
العجاج

TAF: VYYY 140500Z 1406/1506 34006KT 8000 FEW020 TEMPO 1412/1418 6000 HZ

أرصاد الطقس والتوقعات من أكثر من 4000 مطار (تقارير الطقس للمطار METAR والتنبؤ بالطقس بالمطارTAF).

المحطات المتاحة هي النقط الصفراء والحمراء على الخريطة.

حرك المؤشر فوق النقطة لمعرفة اسم المحطة.

ثم انقر لمعرفة أرصاد وتوقعات الطقس.

لتغيير الخارطة: اضغط على الأزرار الخضراء مع رمز الصليب الأسود للتكبير. على الزر الأخضر مع شرطة للتصغير، أو على الأسهم الخضراء للخرائط المجاورة.


METAR-TAF: